MSC Bettina — HPFG — position and weather

sailwx.info

Track history (hours):
 
Tides and Currents Weather Stations Pressure Air Temp Water Temp Dewpoint Dewpoint Depression Visibility Wind Speed Wind Dir Waves Ship Positions

MSC Bettina

Last reported at 2016-Aug-21 00:32 UTC. Time now 2016-Aug-23 21:06 UTC.
Position N 24°45' E 119°34'.

Length 366 m; draft 9.9 m.

Type: Ship (hazmat cat A). MMSI: 352361000.

Date/timePositionNaut miles runAvg speedWind from/ knotsBaromVisibWave heightAir tempDewpointWater temp
2016-Aug-21 00:32N 24°45' E 119°34'1919.4
2016-Aug-20 23:33N 24°32' E 119°19'2219.9
2016-Aug-20 22:28N 24°18' E 119°00'1819.1
2016-Aug-20 21:33N 24°08' E 118°44'1918.8
2016-Aug-20 20:33N 23°57' E 118°28'9117.9
2016-Aug-20 15:28N 23°01' E 117°10'1918.1
2016-Aug-20 14:26N 22°51' E 116°53'12518.0
2016-Aug-20 07:29N 22°07' E 114°47'1718.6
2016-Aug-20 06:34N 22°02' E 114°29'3612.1
2016-Aug-20 03:33N 22°09' E 113°50'1212.4
2016-Aug-20 02:33N 22°22' E 113°50'6 5.7
2016-Aug-20 01:25N 22°28' E 113°53'0 0.0
2016-Aug-20 00:31N 22°28' E 113°53'0 0.0
2016-Aug-19 23:19N 22°28' E 113°53'0 0.0
2016-Aug-19 22:25N 22°28' E 113°53'0 0.0
2016-Aug-19 21:25N 22°28' E 113°53'0 0.0
2016-Aug-19 20:07N 22°28' E 113°53'0 0.0
2016-Aug-19 19:31N 22°28' E 113°53'0 0.0
2016-Aug-19 18:31N 22°28' E 113°53'0 0.0
2016-Aug-19 17:31N 22°28' E 113°53'0 0.0
2016-Aug-19 16:31N 22°28' E 113°53'0 0.0
2016-Aug-19 15:19N 22°28' E 113°53'0 0.0
2016-Aug-19 14:25N 22°28' E 113°53'0 0.0
2016-Aug-19 13:25N 22°28' E 113°53'0 0.0
2016-Aug-19 12:31N 22°28' E 113°53'0 0.0
2016-Aug-19 11:33N 22°28' E 113°53'0 0.0
2016-Aug-19 10:33N 22°28' E 113°53'0 0.0
2016-Aug-19 09:33N 22°28' E 113°53'0 0.0
2016-Aug-19 08:32N 22°28' E 113°53'0 0.0
2016-Aug-19 07:33N 22°28' E 113°53'0 0.0
2016-Aug-19 06:33N 22°28' E 113°53'0 0.0
2016-Aug-19 05:33N 22°28' E 113°53'0 0.0
2016-Aug-19 04:32N 22°28' E 113°53'5 5.3
2016-Aug-19 03:33N 22°23' E 113°50'1514.2
2016-Aug-19 02:30N 22°08' E 113°51'  
2016-Aug-16 08:28N 01°16' E 104°14'1819.5
2016-Aug-16 07:33N 01°13' E 103°56'11 3.6
2016-Aug-16 04:28N 01°16' E 103°46'0 0.0
2016-Aug-16 03:33N 01°16' E 103°46'0 0.0
2016-Aug-16 02:21N 01°16' E 103°46'0 0.0
2016-Aug-16 01:34N 01°16' E 103°46'0 0.0
2016-Aug-16 00:33N 01°16' E 103°46'0 0.0
2016-Aug-15 23:33N 01°16' E 103°46'0 0.0
2016-Aug-15 22:33N 01°16' E 103°46'0 0.0
2016-Aug-14 22:32N 01°16' E 103°46'55 7.8
2016-Aug-14 15:29N 01°35' E 102°54'2613.3
2016-Aug-14 13:33N 01°46' E 102°31'1313.3
2016-Aug-14 12:33N 01°51' E 102°19'1313.2
2016-Aug-14 11:33N 01°59' E 102°08'1413.3
2016-Aug-14 10:31N 02°08' E 101°58'  
Track history (hours):
 
Tides and Currents Weather Stations Pressure Air Temp Water Temp Dewpoint Dewpoint Depression Visibility Wind Speed Wind Dir Waves Ship Positions

MSC Bettina

Last reported at 2016-Aug-21 00:32 UTC. Time now 2016-Aug-23 21:06 UTC.
Position N 24°45' E 119°34'.

Length 366 m; draft 9.9 m.

Type: Ship (hazmat cat A). MMSI: 352361000.

Date/timePositionNaut miles runAvg speedWind from/ knotsBaromVisibWave heightAir tempDewpointWater temp
2016-Aug-21 00:32N 24°45' E 119°34'1919.4
2016-Aug-20 23:33N 24°32' E 119°19'2219.9
2016-Aug-20 22:28N 24°18' E 119°00'1819.1
2016-Aug-20 21:33N 24°08' E 118°44'1918.8
2016-Aug-20 20:33N 23°57' E 118°28'9117.9
2016-Aug-20 15:28N 23°01' E 117°10'1918.1
2016-Aug-20 14:26N 22°51' E 116°53'12518.0
2016-Aug-20 07:29N 22°07' E 114°47'1718.6
2016-Aug-20 06:34N 22°02' E 114°29'3612.1
2016-Aug-20 03:33N 22°09' E 113°50'1212.4
2016-Aug-20 02:33N 22°22' E 113°50'6 5.7
2016-Aug-20 01:25N 22°28' E 113°53'0 0.0
2016-Aug-20 00:31N 22°28' E 113°53'0 0.0
2016-Aug-19 23:19N 22°28' E 113°53'0 0.0
2016-Aug-19 22:25N 22°28' E 113°53'0 0.0
2016-Aug-19 21:25N 22°28' E 113°53'0 0.0
2016-Aug-19 20:07N 22°28' E 113°53'0 0.0
2016-Aug-19 19:31N 22°28' E 113°53'0 0.0
2016-Aug-19 18:31N 22°28' E 113°53'0 0.0
2016-Aug-19 17:31N 22°28' E 113°53'0 0.0
2016-Aug-19 16:31N 22°28' E 113°53'0 0.0
2016-Aug-19 15:19N 22°28' E 113°53'0 0.0
2016-Aug-19 14:25N 22°28' E 113°53'0 0.0
2016-Aug-19 13:25N 22°28' E 113°53'0 0.0
2016-Aug-19 12:31N 22°28' E 113°53'0 0.0
2016-Aug-19 11:33N 22°28' E 113°53'0 0.0
2016-Aug-19 10:33N 22°28' E 113°53'0 0.0
2016-Aug-19 09:33N 22°28' E 113°53'0 0.0
2016-Aug-19 08:32N 22°28' E 113°53'0 0.0
2016-Aug-19 07:33N 22°28' E 113°53'0 0.0
2016-Aug-19 06:33N 22°28' E 113°53'0 0.0
2016-Aug-19 05:33N 22°28' E 113°53'0 0.0
2016-Aug-19 04:32N 22°28' E 113°53'5 5.3
2016-Aug-19 03:33N 22°23' E 113°50'1514.2
2016-Aug-19 02:30N 22°08' E 113°51'  
2016-Aug-16 08:28N 01°16' E 104°14'1819.5
2016-Aug-16 07:33N 01°13' E 103°56'11 3.6
2016-Aug-16 04:28N 01°16' E 103°46'0 0.0
2016-Aug-16 03:33N 01°16' E 103°46'0 0.0
2016-Aug-16 02:21N 01°16' E 103°46'0 0.0
2016-Aug-16 01:34N 01°16' E 103°46'0 0.0
2016-Aug-16 00:33N 01°16' E 103°46'0 0.0
2016-Aug-15 23:33N 01°16' E 103°46'0 0.0
2016-Aug-15 22:33N 01°16' E 103°46'0 0.0
2016-Aug-14 22:32N 01°16' E 103°46'55 7.8
2016-Aug-14 15:29N 01°35' E 102°54'2613.3
2016-Aug-14 13:33N 01°46' E 102°31'1313.3
2016-Aug-14 12:33N 01°51' E 102°19'1313.2
2016-Aug-14 11:33N 01°59' E 102°08'1413.3
2016-Aug-14 10:31N 02°08' E 101°58'  

Dump ship's entire track history